createdAt,value
2023-10-30T00:04:15.648Z,990.20
2023-10-30T00:09:19.789Z,990.13
2023-10-30T00:14:23.889Z,989.98
2023-10-30T00:19:28.069Z,990.20
2023-10-30T00:24:32.251Z,990.28
2023-10-30T00:29:36.385Z,990.20
2023-10-30T00:34:40.553Z,990.21
2023-10-30T00:39:44.675Z,990.32
2023-10-30T00:44:48.876Z,990.44
2023-10-30T00:49:53.062Z,990.52
2023-10-30T00:54:57.206Z,990.53
2023-10-30T01:00:01.350Z,990.60
2023-10-30T01:05:05.713Z,990.78
2023-10-30T01:10:09.657Z,990.65
2023-10-30T01:15:13.883Z,990.78
2023-10-30T01:20:17.988Z,990.82
2023-10-30T01:25:22.161Z,990.75
2023-10-30T01:30:26.344Z,990.73
2023-10-30T01:35:30.559Z,990.66
2023-10-30T01:40:34.652Z,990.72
2023-10-30T01:45:38.874Z,990.67
2023-10-30T01:50:42.953Z,990.69
2023-10-30T01:55:47.162Z,990.76
2023-10-30T02:00:51.382Z,990.76
2023-10-30T02:05:55.524Z,990.85
2023-10-30T02:10:59.647Z,990.86
2023-10-30T02:16:03.859Z,990.83
2023-10-30T02:21:07.984Z,990.86
2023-10-30T02:26:12.123Z,990.92
2023-10-30T02:31:16.226Z,991.03
2023-10-30T02:36:18.528Z,991.00
2023-10-30T02:41:22.677Z,991.08
2023-10-30T02:46:26.850Z,991.01
2023-10-30T02:51:31.129Z,991.04
2023-10-30T02:56:35.157Z,991.08
2023-10-30T03:01:39.325Z,990.95
2023-10-30T03:06:43.529Z,991.00
2023-10-30T03:11:47.653Z,990.93
2023-10-30T03:16:51.823Z,990.89
2023-10-30T03:21:55.955Z,990.84
2023-10-30T03:27:00.162Z,990.81
2023-10-30T03:32:04.299Z,990.88
2023-10-30T03:37:08.445Z,990.94
2023-10-30T03:42:12.656Z,990.89
2023-10-30T03:47:16.777Z,990.78
2023-10-30T03:52:20.948Z,990.83
2023-10-30T03:57:25.136Z,990.88
2023-10-30T04:02:29.347Z,991.02
2023-10-30T04:07:33.435Z,991.05
2023-10-30T04:12:37.619Z,991.08
2023-10-30T04:17:41.832Z,991.08
2023-10-30T04:22:45.911Z,991.05
2023-10-30T04:27:50.104Z,991.08
2023-10-30T04:32:54.237Z,991.04
2023-10-30T04:37:58.409Z,991.09
2023-10-30T04:43:02.542Z,991.04
2023-10-30T04:48:06.739Z,990.99
2023-10-30T04:53:10.860Z,990.92
2023-10-30T04:58:15.058Z,990.92
2023-10-30T05:03:19.299Z,991.00
2023-10-30T05:08:23.374Z,991.00
2023-10-30T05:13:27.568Z,990.99
2023-10-30T05:18:31.664Z,991.15
2023-10-30T05:23:35.819Z,991.13
2023-10-30T05:28:40.081Z,991.13
2023-10-30T05:33:44.222Z,991.04
2023-10-30T05:38:48.345Z,991.09
2023-10-30T05:43:52.486Z,991.20
2023-10-30T05:48:56.646Z,991.12
2023-10-30T05:54:00.818Z,991.13
2023-10-30T05:59:04.985Z,991.05
2023-10-30T06:04:09.273Z,991.08
2023-10-30T06:09:13.401Z,991.18
2023-10-30T06:14:17.467Z,991.16
2023-10-30T06:19:21.622Z,991.11
2023-10-30T06:24:25.810Z,991.11
2023-10-30T06:29:29.983Z,991.07
2023-10-30T06:34:34.107Z,990.98
2023-10-30T06:39:38.381Z,991.01
2023-10-30T06:44:42.407Z,991.05
2023-10-30T06:49:46.612Z,991.05
2023-10-30T06:54:50.967Z,991.09
2023-10-30T06:59:54.901Z,991.15
2023-10-30T07:04:59.099Z,991.24
2023-10-30T07:10:03.260Z,991.14
2023-10-30T07:15:07.427Z,991.30
2023-10-30T07:20:11.598Z,991.28
2023-10-30T07:25:15.725Z,991.31
2023-10-30T07:30:19.880Z,991.42
2023-10-30T07:35:24.032Z,991.46
2023-10-30T07:40:28.214Z,991.40
2023-10-30T07:45:32.471Z,991.47
2023-10-30T07:50:36.538Z,991.56
2023-10-30T07:55:40.705Z,991.54
2023-10-30T08:00:57.832Z,991.54
2023-10-30T08:05:47.130Z,991.53
2023-10-30T08:10:51.340Z,991.43
2023-10-30T08:15:55.494Z,991.50
2023-10-30T08:21:07.129Z,991.60
2023-10-30T08:26:03.765Z,991.49
2023-10-30T08:31:08.051Z,991.49
2023-10-30T08:36:12.122Z,991.52
2023-10-30T08:41:16.248Z,991.56
2023-10-30T08:46:20.474Z,991.60
2023-10-30T08:56:28.739Z,991.58
2023-10-30T09:01:32.877Z,991.58
2023-10-30T09:06:37.089Z,991.58
2023-10-30T09:11:41.272Z,991.56
2023-10-30T09:16:45.442Z,991.47
2023-10-30T09:21:49.563Z,991.50
2023-10-30T09:26:53.698Z,991.42
2023-10-30T09:31:57.865Z,991.48
2023-10-30T09:37:02.072Z,991.46
2023-10-30T09:42:06.152Z,991.47
2023-10-30T09:47:10.374Z,991.39
2023-10-30T09:52:14.526Z,991.26
2023-10-30T09:57:18.649Z,991.24
2023-10-30T10:02:22.915Z,991.32
2023-10-30T10:07:26.972Z,991.35
2023-10-30T10:17:35.363Z,991.36
2023-10-30T10:22:39.435Z,991.36
2023-10-30T10:27:43.693Z,991.26
2023-10-30T10:32:47.811Z,991.26
2023-10-30T10:37:51.943Z,991.15
2023-10-30T10:42:56.168Z,991.02
2023-10-30T10:48:00.330Z,991.07
2023-10-30T10:53:04.393Z,991.00
2023-10-30T10:58:08.600Z,990.84
2023-10-30T11:03:12.712Z,990.82
2023-10-30T11:08:16.884Z,990.69
2023-10-30T11:13:21.057Z,990.58
2023-10-30T11:18:25.332Z,990.49
2023-10-30T11:23:29.395Z,990.48
2023-10-30T11:28:33.540Z,990.44
2023-10-30T11:33:37.742Z,990.33
2023-10-30T11:38:41.846Z,990.15
2023-10-30T11:43:45.997Z,990.12
2023-10-30T11:48:50.240Z,990.06
2023-10-30T11:53:54.349Z,990.07
2023-10-30T11:58:58.490Z,989.98
2023-10-30T12:04:04.517Z,989.97
2023-10-30T12:09:06.875Z,989.87
2023-10-30T12:14:10.977Z,989.74
2023-10-30T12:19:15.118Z,989.67
2023-10-30T12:24:19.319Z,989.59
2023-10-30T12:29:23.499Z,989.40
2023-10-30T12:34:27.624Z,989.28
2023-10-30T12:39:31.827Z,989.27
2023-10-30T12:44:35.979Z,989.26
2023-10-30T12:49:40.136Z,989.15
2023-10-30T12:54:44.302Z,988.99
2023-10-30T12:59:48.446Z,988.93
2023-10-30T13:04:52.988Z,988.85
2023-10-30T13:09:56.811Z,988.85
2023-10-30T13:15:00.924Z,988.79
2023-10-30T13:20:05.078Z,988.69
2023-10-30T13:25:09.292Z,988.49
2023-10-30T13:30:13.423Z,988.45
2023-10-30T13:35:15.701Z,988.27
2023-10-30T13:40:19.793Z,988.24
2023-10-30T13:45:23.998Z,988.19
2023-10-30T13:50:28.118Z,988.03
2023-10-30T13:55:32.287Z,988.03
2023-10-30T14:00:36.494Z,987.99
2023-10-30T14:05:38.736Z,987.87
2023-10-30T14:10:42.891Z,987.97
2023-10-30T14:15:47.116Z,987.82
2023-10-30T14:20:51.218Z,987.82
2023-10-30T14:25:55.425Z,987.70
2023-10-30T14:30:59.616Z,987.70
2023-10-30T14:36:03.672Z,987.65
2023-10-30T14:41:07.856Z,987.60
2023-10-30T14:46:12.014Z,987.60
2023-10-30T14:51:17.766Z,987.62
2023-10-30T14:56:20.304Z,987.49
2023-10-30T15:01:24.550Z,987.53
2023-10-30T15:11:32.795Z,987.40
2023-10-30T15:16:37.026Z,987.19
2023-10-30T15:21:41.203Z,987.13
2023-10-30T15:26:45.312Z,987.11
2023-10-30T15:31:49.444Z,987.03
2023-10-30T15:36:53.618Z,986.94
2023-10-30T15:41:57.737Z,986.88
2023-10-30T15:47:07.933Z,986.91
2023-10-30T16:02:14.414Z,986.89
2023-10-30T16:07:18.664Z,986.81
2023-10-30T16:12:22.758Z,986.67
2023-10-30T16:17:27.034Z,986.72
2023-10-30T16:22:31.041Z,986.77
2023-10-30T16:27:35.266Z,986.77
2023-10-30T16:32:39.380Z,986.70
2023-10-30T16:37:43.543Z,986.69
2023-10-30T16:42:47.712Z,986.67
2023-10-30T16:47:51.918Z,986.72
2023-10-30T16:52:55.984Z,986.61
2023-10-30T16:58:01.568Z,986.71
2023-10-30T17:03:04.395Z,986.74
2023-10-30T17:08:08.527Z,986.83
2023-10-30T17:13:12.647Z,986.77
2023-10-30T17:18:16.829Z,986.70
2023-10-30T17:23:20.959Z,986.66
2023-10-30T17:28:25.142Z,986.59
2023-10-30T17:33:29.289Z,986.72
2023-10-30T17:38:33.450Z,986.63
2023-10-30T17:43:37.644Z,986.62
2023-10-30T17:48:41.755Z,986.61
2023-10-30T17:53:45.921Z,986.55
2023-10-30T17:58:50.131Z,986.51
2023-10-30T18:03:54.269Z,986.35
2023-10-30T18:08:58.436Z,986.30
2023-10-30T18:14:02.580Z,986.22
2023-10-30T18:19:06.760Z,986.32
2023-10-30T18:24:10.861Z,986.18
2023-10-30T18:29:18.241Z,986.16
2023-10-30T18:34:19.236Z,986.23
2023-10-30T18:39:23.385Z,986.10
2023-10-30T18:44:27.561Z,985.97
2023-10-30T18:49:31.717Z,985.96
2023-10-30T18:54:35.876Z,985.91
2023-10-30T18:59:40.043Z,985.80
2023-10-30T19:04:44.374Z,985.83
2023-10-30T19:09:48.361Z,985.73
2023-10-30T19:14:52.526Z,985.69
2023-10-30T19:19:56.767Z,985.68
2023-10-30T19:25:00.869Z,985.62
2023-10-30T19:30:05.013Z,985.51
2023-10-30T19:35:07.289Z,985.72
2023-10-30T19:40:11.413Z,985.69
2023-10-30T19:45:15.593Z,985.64
2023-10-30T19:50:19.794Z,985.69
2023-10-30T19:55:24.006Z,985.76
2023-10-30T20:00:28.112Z,985.72
2023-10-30T20:05:32.259Z,985.66
2023-10-30T20:10:38.358Z,985.74
2023-10-30T20:15:40.553Z,985.71
2023-10-30T20:20:44.982Z,985.61
2023-10-30T20:25:48.902Z,985.54
2023-10-30T20:30:53.033Z,985.52
2023-10-30T20:35:57.186Z,985.63
2023-10-30T20:41:01.368Z,985.55
2023-10-30T20:46:05.591Z,985.42
2023-10-30T20:51:09.746Z,985.34
2023-10-30T20:56:13.823Z,985.30
2023-10-30T21:01:18.039Z,985.25
2023-10-30T21:06:22.193Z,985.16
2023-10-30T21:11:26.334Z,985.18
2023-10-30T21:16:30.629Z,985.19
2023-10-30T21:21:34.673Z,985.21
2023-10-30T21:26:38.822Z,985.20
2023-10-30T21:31:43.028Z,985.21
2023-10-30T21:36:47.159Z,985.11
2023-10-30T21:41:51.294Z,984.97
2023-10-30T21:46:55.495Z,984.91
2023-10-30T21:51:59.630Z,984.74
2023-10-30T21:57:03.824Z,984.76
2023-10-30T22:02:07.974Z,984.66
2023-10-30T22:07:12.111Z,984.66
2023-10-30T22:12:16.229Z,984.53
2023-10-30T22:17:20.468Z,984.44
2023-10-30T22:22:24.607Z,984.37
2023-10-30T22:27:28.772Z,984.48
2023-10-30T22:32:32.915Z,984.48
2023-10-30T22:37:37.120Z,984.51
2023-10-30T22:42:41.225Z,984.47
2023-10-30T22:47:45.395Z,984.45
2023-10-30T22:52:49.554Z,984.45
2023-10-30T22:57:54.283Z,984.47
2023-10-30T23:02:57.932Z,984.34
2023-10-30T23:08:02.116Z,984.36
2023-10-30T23:13:06.186Z,984.31
2023-10-30T23:18:10.413Z,984.38
2023-10-30T23:23:14.504Z,984.41
2023-10-30T23:28:18.681Z,984.37
2023-10-30T23:33:22.828Z,984.56
2023-10-30T23:38:27.021Z,984.53
2023-10-30T23:43:31.168Z,984.54
2023-10-30T23:48:35.339Z,984.60
2023-10-30T23:53:39.487Z,984.82
2023-10-30T23:58:43.648Z,984.88
